createdAt,value
2022-12-19T00:00:49.431Z,50.50
2022-12-19T00:03:16.632Z,48.55
2022-12-19T00:05:43.726Z,55.08
2022-12-19T00:08:19.560Z,53.53
2022-12-19T00:10:59.458Z,60.20
2022-12-19T00:13:27.413Z,58.40
2022-12-19T00:16:04.669Z,64.50
2022-12-19T00:18:31.800Z,55.60
2022-12-19T00:21:01.203Z,58.22
2022-12-19T00:23:30.239Z,55.00
2022-12-19T00:26:12.734Z,55.40
2022-12-19T00:28:40.411Z,57.85
2022-12-19T00:31:09.546Z,60.58
2022-12-19T00:33:36.619Z,59.25
2022-12-19T00:36:11.605Z,49.95
2022-12-19T00:38:38.950Z,62.47
2022-12-19T00:41:17.452Z,56.35
2022-12-19T00:43:45.355Z,43.28
2022-12-19T00:46:15.120Z,49.20
2022-12-19T00:48:43.108Z,53.35
2022-12-19T00:51:13.580Z,44.05
2022-12-19T00:53:43.443Z,63.70
2022-12-19T00:56:16.354Z,57.42
2022-12-19T00:58:47.145Z,55.67
2022-12-19T01:01:34.331Z,61.55
2022-12-19T01:06:51.705Z,60.42
2022-12-19T01:09:18.711Z,39.60
2022-12-19T01:12:04.156Z,57.45
2022-12-19T01:18:56.283Z,58.72
2022-12-19T01:21:25.357Z,57.75
2022-12-19T01:23:53.039Z,55.30
2022-12-19T01:26:20.095Z,50.70
2022-12-19T01:28:47.859Z,58.17
2022-12-19T01:31:14.948Z,56.15
2022-12-19T01:33:42.785Z,38.22
2022-12-19T01:36:12.282Z,56.20
2022-12-19T01:38:39.335Z,49.70
2022-12-19T01:41:07.193Z,64.22
2022-12-19T01:44:14.125Z,53.15
2022-12-19T01:49:34.393Z,63.25
2022-12-19T01:52:07.818Z,54.08
2022-12-19T01:54:40.719Z,63.08
2022-12-19T01:57:14.329Z,58.75
2022-12-19T01:59:46.741Z,56.63
2022-12-19T02:02:34.318Z,60.47
2022-12-19T02:05:03.445Z,62.35
2022-12-19T02:07:32.761Z,37.88
2022-12-19T02:12:41.897Z,59.20
2022-12-19T02:15:11.257Z,51.63
2022-12-19T02:18:01.595Z,64.22
2022-12-19T02:20:57.818Z,61.55
2022-12-19T02:23:51.077Z,62.65
2022-12-19T02:26:37.420Z,61.92
2022-12-19T02:29:07.732Z,61.80
2022-12-19T02:31:44.580Z,56.53
2022-12-19T02:34:33.826Z,60.28
2022-12-19T02:37:30.805Z,62.55
2022-12-19T02:40:16.524Z,37.28
2022-12-19T02:42:50.732Z,54.55
2022-12-19T02:45:24.698Z,43.47
2022-12-19T02:48:05.722Z,41.58
2022-12-19T02:50:42.693Z,51.08
2022-12-19T02:53:14.367Z,61.13
2022-12-19T02:55:58.445Z,61.35
2022-12-19T02:58:36.331Z,48.90
2022-12-19T03:01:24.998Z,43.72
2022-12-19T03:04:23.944Z,57.60
2022-12-19T03:07:11.754Z,58.65
2022-12-19T03:09:57.370Z,28.25
2022-12-19T03:12:34.672Z,59.47
2022-12-19T03:15:02.648Z,59.78
2022-12-19T03:17:34.908Z,55.95
2022-12-19T03:20:05.503Z,49.95
2022-12-19T03:22:47.959Z,56.78
2022-12-19T03:25:15.237Z,63.45
2022-12-19T03:27:43.061Z,58.65
2022-12-19T03:30:13.645Z,64.65
2022-12-19T03:32:44.132Z,38.17
2022-12-19T03:35:18.911Z,49.83
2022-12-19T03:37:49.419Z,51.10
2022-12-19T03:40:19.597Z,57.35
2022-12-19T03:43:07.409Z,58.92
2022-12-19T03:45:59.971Z,45.60
2022-12-19T03:48:43.622Z,60.05
2022-12-19T03:51:30.205Z,54.90
2022-12-19T03:54:03.318Z,57.65
2022-12-19T03:56:56.081Z,46.78
2022-12-19T03:59:34.547Z,58.80
2022-12-19T04:02:04.086Z,55.63
2022-12-19T04:04:34.490Z,67.97
2022-12-19T04:07:04.148Z,62.78
2022-12-19T04:09:32.334Z,65.50
2022-12-19T04:12:03.135Z,58.95
2022-12-19T04:14:34.224Z,55.70
2022-12-19T04:17:10.320Z,60.40
2022-12-19T04:19:45.086Z,67.75
2022-12-19T04:22:39.679Z,58.58
2022-12-19T04:25:11.457Z,65.82
2022-12-19T04:27:41.594Z,68.35
2022-12-19T04:30:09.711Z,58.00
2022-12-19T04:32:37.869Z,61.47
2022-12-19T04:35:05.584Z,55.80
2022-12-19T04:37:32.660Z,35.20
2022-12-19T04:40:00.157Z,59.90
2022-12-19T04:42:27.186Z,69.05
2022-12-19T04:44:54.224Z,64.78
2022-12-19T04:47:21.281Z,64.65
2022-12-19T04:49:48.311Z,74.47
2022-12-19T04:52:15.454Z,47.75
2022-12-19T04:54:42.492Z,62.13
2022-12-19T04:57:09.566Z,59.50
2022-12-19T04:59:36.588Z,59.13
2022-12-19T05:02:03.849Z,62.20
2022-12-19T05:04:30.941Z,58.15
2022-12-19T05:06:58.027Z,69.18
2022-12-19T05:09:25.914Z,70.78
2022-12-19T05:11:52.904Z,64.55
2022-12-19T05:14:19.942Z,67.25
2022-12-19T05:16:47.061Z,69.70
2022-12-19T05:19:14.116Z,71.68
2022-12-19T05:21:41.468Z,57.25
2022-12-19T05:28:35.087Z,61.83
2022-12-19T05:31:11.705Z,74.10
2022-12-19T05:33:39.689Z,69.10
2022-12-19T05:36:08.563Z,56.40
2022-12-19T05:38:36.587Z,74.82
2022-12-19T05:41:14.695Z,73.32
2022-12-19T05:43:42.385Z,73.97
2022-12-19T05:46:09.429Z,66.53
2022-12-19T05:48:37.549Z,70.00
2022-12-19T05:51:05.329Z,56.63
2022-12-19T05:53:32.692Z,61.33
2022-12-19T05:56:08.672Z,60.67
2022-12-19T05:58:36.726Z,68.72
2022-12-19T06:01:13.355Z,75.63
2022-12-19T06:03:41.046Z,73.40
2022-12-19T06:06:11.672Z,73.90
2022-12-19T06:08:39.236Z,75.50
2022-12-19T06:11:08.097Z,69.72
2022-12-19T06:13:36.344Z,59.03
2022-12-19T06:16:23.319Z,79.25
2022-12-19T06:18:50.898Z,71.85
2022-12-19T06:21:20.751Z,49.10
2022-12-19T06:23:48.187Z,73.60
2022-12-19T06:26:19.868Z,74.90
2022-12-19T06:30:00.734Z,71.88
2022-12-19T06:32:27.735Z,67.18
2022-12-19T06:35:04.168Z,69.95
2022-12-19T06:37:31.714Z,66.28
2022-12-19T06:39:58.768Z,58.85
2022-12-19T06:42:25.894Z,52.55
2022-12-19T06:44:55.973Z,79.68
2022-12-19T06:47:24.615Z,72.97
2022-12-19T06:49:51.816Z,51.08
2022-12-19T06:52:19.030Z,87.63
2022-12-19T06:54:46.125Z,71.30
2022-12-19T06:57:13.185Z,81.57
2022-12-19T06:59:40.221Z,59.65
2022-12-19T07:03:00.158Z,66.38
2022-12-19T07:05:27.698Z,73.38
2022-12-19T07:07:55.110Z,62.88
2022-12-19T07:10:22.282Z,79.20
2022-12-19T07:12:49.337Z,52.70
2022-12-19T07:15:16.618Z,68.72
2022-12-19T07:17:43.963Z,75.55
2022-12-19T07:20:12.319Z,77.47
2022-12-19T07:22:39.819Z,72.45
2022-12-19T07:25:07.465Z,79.32
2022-12-19T07:27:36.257Z,75.10
2022-12-19T07:30:05.772Z,66.70
2022-12-19T07:34:59.938Z,77.47
2022-12-19T07:37:26.967Z,71.97
2022-12-19T07:39:53.994Z,73.68
2022-12-19T07:42:21.577Z,61.25
2022-12-19T07:47:17.531Z,58.40
2022-12-19T07:49:44.648Z,67.93
2022-12-19T07:52:11.780Z,66.45
2022-12-19T07:54:38.842Z,70.18
2022-12-19T07:57:05.833Z,76.10
2022-12-19T08:03:55.234Z,66.10
2022-12-19T08:06:23.560Z,70.82
2022-12-19T08:08:51.070Z,71.63
2022-12-19T08:11:26.450Z,77.65
2022-12-19T08:13:59.643Z,77.22
2022-12-19T08:16:28.130Z,67.72
2022-12-19T08:18:55.886Z,49.93
2022-12-19T08:21:25.182Z,75.97
2022-12-19T08:23:52.608Z,74.88
2022-12-19T08:26:25.573Z,72.75
2022-12-19T08:28:57.413Z,65.40
2022-12-19T08:31:26.869Z,73.40
2022-12-19T08:36:23.232Z,71.53
2022-12-19T08:38:51.102Z,66.35
2022-12-19T08:41:18.662Z,67.03
2022-12-19T08:43:54.031Z,69.97
2022-12-19T08:46:21.884Z,63.00
2022-12-19T08:48:49.326Z,71.70
2022-12-19T08:51:17.519Z,67.47
2022-12-19T08:53:46.632Z,67.60
2022-12-19T08:56:19.411Z,67.05
2022-12-19T08:58:47.498Z,75.03
2022-12-19T09:02:11.536Z,69.78
2022-12-19T09:06:01.765Z,62.33
2022-12-19T09:07:25.703Z,76.30
2022-12-19T09:09:52.785Z,69.32
2022-12-19T09:12:19.984Z,55.65
2022-12-19T09:14:47.337Z,56.78
2022-12-19T09:17:14.562Z,59.25
2022-12-19T09:19:42.624Z,73.43
2022-12-19T09:22:14.722Z,69.88
2022-12-19T09:24:41.789Z,65.40
2022-12-19T09:27:09.378Z,61.42
2022-12-19T09:29:36.436Z,73.88
2022-12-19T09:32:03.481Z,55.45
2022-12-19T09:34:36.753Z,61.65
2022-12-19T09:37:16.270Z,61.53
2022-12-19T09:39:48.154Z,65.95
2022-12-19T09:42:15.227Z,58.30
2022-12-19T09:45:26.750Z,61.88
2022-12-19T09:47:59.329Z,72.05
2022-12-19T09:50:51.168Z,64.22
2022-12-19T09:53:58.056Z,67.75
2022-12-19T09:56:30.315Z,70.45
2022-12-19T09:59:12.256Z,59.80
2022-12-19T10:01:56.398Z,67.78
2022-12-19T10:04:27.758Z,63.10
2022-12-19T10:07:18.501Z,67.38
2022-12-19T10:12:33.020Z,74.00
2022-12-19T10:13:02.553Z,69.05
2022-12-19T10:15:59.926Z,56.28
2022-12-19T10:18:56.975Z,62.47
2022-12-19T10:25:09.193Z,63.97
2022-12-19T10:28:14.746Z,63.30
2022-12-19T10:31:22.260Z,63.05
2022-12-19T10:34:18.831Z,67.05
2022-12-19T10:37:24.527Z,66.97
2022-12-19T10:39:57.516Z,64.05
2022-12-19T10:42:32.997Z,64.30
2022-12-19T10:45:04.948Z,53.53
2022-12-19T10:47:32.104Z,58.30
2022-12-19T10:50:03.981Z,62.15
2022-12-19T10:52:48.602Z,61.95
2022-12-19T10:57:51.918Z,60.20
2022-12-19T11:00:20.193Z,61.42
2022-12-19T11:03:04.542Z,57.10
2022-12-19T11:05:58.183Z,50.40
2022-12-19T11:08:27.100Z,54.28
2022-12-19T11:11:47.776Z,57.03
2022-12-19T11:18:25.753Z,59.55
2022-12-19T11:21:33.951Z,61.38
2022-12-19T11:29:17.101Z,53.85
2022-12-19T11:30:08.454Z,61.05
2022-12-19T11:30:36.678Z,53.58
2022-12-19T11:30:36.761Z,52.42
2022-12-19T11:32:31.498Z,58.47
2022-12-19T11:34:27.206Z,55.83
2022-12-19T11:37:16.915Z,45.37
2022-12-19T11:40:02.028Z,57.78
2022-12-19T11:43:42.090Z,58.75
2022-12-19T11:46:09.065Z,56.85
2022-12-19T11:48:41.282Z,57.67
2022-12-19T11:51:25.563Z,57.63
2022-12-19T11:54:01.918Z,72.93
2022-12-19T11:56:29.841Z,71.00
2022-12-19T11:59:36.647Z,56.10
2022-12-19T12:02:46.713Z,60.85
2022-12-19T12:05:28.873Z,59.58
2022-12-19T12:09:02.834Z,57.13
2022-12-19T12:19:39.297Z,49.22
2022-12-19T12:25:25.854Z,53.97
2022-12-19T12:31:05.470Z,57.40
2022-12-19T12:31:09.793Z,54.75
2022-12-19T12:31:14.065Z,40.13
2022-12-19T12:31:52.739Z,50.60
2022-12-19T12:31:54.265Z,51.35
2022-12-19T12:35:54.018Z,53.25
2022-12-19T12:39:14.532Z,49.50
2022-12-19T12:42:05.533Z,63.38
2022-12-19T12:44:45.130Z,62.60
2022-12-19T12:47:19.019Z,59.78
2022-12-19T12:49:55.844Z,63.65
2022-12-19T12:52:37.991Z,67.85
2022-12-19T12:55:34.759Z,100.88
2022-12-19T12:58:01.768Z,101.15
2022-12-19T13:00:34.313Z,93.22
2022-12-19T13:03:12.312Z,83.38
2022-12-19T13:06:21.671Z,103.07
2022-12-19T13:08:50.171Z,125.78
2022-12-19T13:11:38.677Z,78.30
2022-12-19T13:14:27.236Z,61.13
2022-12-19T13:16:55.205Z,34.58
2022-12-19T13:19:29.398Z,49.85
2022-12-19T13:22:17.773Z,56.55
2022-12-19T13:24:56.887Z,55.83
2022-12-19T13:27:40.747Z,54.30
2022-12-19T13:31:18.999Z,57.78
2022-12-19T13:33:55.745Z,44.53
2022-12-19T13:39:51.442Z,58.50
2022-12-19T13:40:09.171Z,44.70
2022-12-19T13:43:10.417Z,55.15
2022-12-19T13:45:42.337Z,51.38
2022-12-19T13:48:16.702Z,54.38
2022-12-19T13:50:48.018Z,50.20
2022-12-19T13:53:23.159Z,54.92
2022-12-19T13:55:53.479Z,50.85
2022-12-19T13:58:37.701Z,52.08
2022-12-19T14:01:21.213Z,48.22
2022-12-19T14:03:50.371Z,60.85
2022-12-19T14:06:29.994Z,52.20
2022-12-19T14:13:46.450Z,45.45
2022-12-19T14:15:17.728Z,39.63
2022-12-19T14:17:49.502Z,46.80
2022-12-19T14:22:02.017Z,48.05
2022-12-19T14:23:11.594Z,53.47
2022-12-19T14:28:18.709Z,50.75
2022-12-19T14:28:54.773Z,47.35
2022-12-19T14:31:23.961Z,48.00
2022-12-19T14:34:18.609Z,36.00
2022-12-19T14:36:49.458Z,51.00
2022-12-19T14:39:24.644Z,57.08
2022-12-19T14:42:31.397Z,60.00
2022-12-19T14:52:26.108Z,63.13
2022-12-19T14:53:34.064Z,56.20
2022-12-19T14:54:40.845Z,50.78
2022-12-19T14:57:50.570Z,55.38
2022-12-19T15:01:07.139Z,58.75
2022-12-19T15:03:34.491Z,53.92
2022-12-19T15:07:08.951Z,55.80
2022-12-19T15:14:49.011Z,48.20
2022-12-19T15:15:35.964Z,48.78
2022-12-19T15:18:16.210Z,57.42
2022-12-19T15:20:43.252Z,55.25
2022-12-19T15:23:10.464Z,53.72
2022-12-19T15:26:03.214Z,53.10
2022-12-19T15:28:50.920Z,44.40
2022-12-19T15:31:27.423Z,61.80
2022-12-19T15:36:41.928Z,54.00
2022-12-19T15:39:09.095Z,53.72
2022-12-19T15:41:36.267Z,58.88
2022-12-19T15:44:33.304Z,67.25
2022-12-19T15:47:02.564Z,71.97
2022-12-19T15:49:31.601Z,55.30
2022-12-19T15:51:59.756Z,43.05
2022-12-19T15:57:32.538Z,59.38
2022-12-19T16:00:25.464Z,59.28
2022-12-19T16:03:23.348Z,62.67
2022-12-19T16:05:41.585Z,63.22
2022-12-19T16:08:20.631Z,56.72
2022-12-19T16:10:55.952Z,61.08
2022-12-19T16:13:32.135Z,58.70
2022-12-19T16:15:59.818Z,60.85
2022-12-19T16:18:27.263Z,58.60
2022-12-19T16:20:54.641Z,58.63
2022-12-19T16:23:25.403Z,62.40
2022-12-19T16:25:53.002Z,56.50
2022-12-19T16:28:29.073Z,62.85
2022-12-19T16:30:57.879Z,99.70
2022-12-19T16:33:30.865Z,78.88
2022-12-19T16:36:06.923Z,71.07
2022-12-19T16:38:35.805Z,77.25
2022-12-19T16:41:03.316Z,66.22
2022-12-19T16:43:44.484Z,61.08
2022-12-19T16:46:18.655Z,64.38
2022-12-19T16:48:46.180Z,57.80
2022-12-19T16:51:20.345Z,58.50
2022-12-19T16:53:48.882Z,58.75
2022-12-19T16:56:24.469Z,41.35
2022-12-19T16:58:53.868Z,56.60
2022-12-19T17:01:21.254Z,54.13
2022-12-19T17:03:49.070Z,53.05
2022-12-19T17:06:20.002Z,51.85
2022-12-19T17:08:49.341Z,57.03
2022-12-19T17:11:21.283Z,58.90
2022-12-19T17:13:51.885Z,52.42
2022-12-19T17:16:19.521Z,52.78
2022-12-19T17:18:47.446Z,59.17
2022-12-19T17:21:21.509Z,56.10
2022-12-19T17:23:49.949Z,61.92
2022-12-19T17:26:18.112Z,59.85
2022-12-19T17:28:48.427Z,60.40
2022-12-19T17:31:28.795Z,53.83
2022-12-19T17:33:58.271Z,50.53
2022-12-19T17:39:20.300Z,45.42
2022-12-19T17:41:48.910Z,50.22
2022-12-19T17:44:16.096Z,43.55
2022-12-19T17:46:44.416Z,51.42
2022-12-19T17:49:16.817Z,54.78
2022-12-19T17:51:48.979Z,55.88
2022-12-19T17:54:16.104Z,54.83
2022-12-19T17:56:43.173Z,48.70
2022-12-19T17:59:10.361Z,53.92
2022-12-19T18:01:38.451Z,54.00
2022-12-19T18:04:05.710Z,42.67
2022-12-19T18:06:32.910Z,52.63
2022-12-19T18:09:02.785Z,55.90
2022-12-19T18:11:35.508Z,47.85
2022-12-19T18:14:07.088Z,50.30
2022-12-19T18:16:34.344Z,55.10
2022-12-19T18:19:01.557Z,55.15
2022-12-19T18:21:28.630Z,49.05
2022-12-19T18:23:55.743Z,48.13
2022-12-19T18:26:23.005Z,49.53
2022-12-19T18:28:50.207Z,55.65
2022-12-19T18:31:26.571Z,47.17
2022-12-19T18:33:55.460Z,46.97
2022-12-19T18:36:25.413Z,45.53
2022-12-19T18:38:53.252Z,46.97
2022-12-19T18:41:20.543Z,45.35
2022-12-19T18:43:48.651Z,51.58
2022-12-19T18:46:20.699Z,52.97
2022-12-19T18:48:47.867Z,44.65
2022-12-19T18:51:19.751Z,53.40
2022-12-19T18:53:48.627Z,48.65
2022-12-19T18:56:15.882Z,57.07
2022-12-19T18:58:43.031Z,48.83
2022-12-19T19:01:15.652Z,66.20
2022-12-19T19:03:49.458Z,61.85
2022-12-19T19:06:23.162Z,52.65
2022-12-19T19:08:53.123Z,49.03
2022-12-19T19:11:58.719Z,55.77
2022-12-19T19:14:25.774Z,56.08
2022-12-19T19:16:53.247Z,54.00
2022-12-19T19:19:20.362Z,54.88
2022-12-19T19:21:47.490Z,51.10
2022-12-19T19:24:18.898Z,46.95
2022-12-19T19:26:46.120Z,46.78
2022-12-19T19:29:18.951Z,44.45
2022-12-19T19:31:48.996Z,47.50
2022-12-19T19:34:21.828Z,54.58
2022-12-19T19:36:54.882Z,53.33
2022-12-19T19:39:23.107Z,55.83
2022-12-19T19:41:50.196Z,56.03
2022-12-19T19:44:17.456Z,51.78
2022-12-19T19:46:45.018Z,45.47
2022-12-19T19:49:12.523Z,45.33
2022-12-19T19:51:39.639Z,57.25
2022-12-19T19:54:07.594Z,105.18
2022-12-19T19:56:34.688Z,120.03
2022-12-19T19:59:01.954Z,122.68
2022-12-19T20:01:35.310Z,135.00
2022-12-19T20:04:02.642Z,169.32
2022-12-19T20:06:29.769Z,110.18
2022-12-19T20:08:56.853Z,76.88
2022-12-19T20:11:23.881Z,57.78
2022-12-19T20:13:50.960Z,48.53
2022-12-19T20:16:19.199Z,47.13
2022-12-19T20:18:51.418Z,54.17
2022-12-19T20:21:19.999Z,49.47
2022-12-19T20:23:47.735Z,59.93
2022-12-19T20:26:16.500Z,52.40
2022-12-19T20:28:49.069Z,52.40
2022-12-19T20:31:18.653Z,50.47
2022-12-19T20:33:46.509Z,53.05
2022-12-19T20:36:15.976Z,45.72
2022-12-19T20:38:44.205Z,50.05
2022-12-19T20:41:11.401Z,47.30
2022-12-19T20:43:38.867Z,53.47
2022-12-19T20:46:12.425Z,50.28
2022-12-19T20:48:40.103Z,51.28
2022-12-19T20:51:08.076Z,43.65
2022-12-19T20:53:36.395Z,44.50
2022-12-19T20:56:05.702Z,46.08
2022-12-19T20:58:34.558Z,50.00
2022-12-19T21:01:07.528Z,34.35
2022-12-19T21:03:35.549Z,51.97
2022-12-19T21:06:03.644Z,41.78
2022-12-19T21:08:31.187Z,52.78
2022-12-19T21:10:59.562Z,66.93
2022-12-19T21:13:26.928Z,59.00
2022-12-19T21:15:59.381Z,50.28
2022-12-19T21:18:27.595Z,41.72
2022-12-19T21:20:55.839Z,43.88
2022-12-19T21:23:24.196Z,47.60
2022-12-19T21:25:51.985Z,47.17
2022-12-19T21:28:19.426Z,47.28
2022-12-19T21:30:46.485Z,45.78
2022-12-19T21:33:13.558Z,53.45
2022-12-19T21:35:40.635Z,60.85
2022-12-19T21:38:07.639Z,56.63
2022-12-19T21:40:36.611Z,59.65
2022-12-19T21:43:11.229Z,54.47
2022-12-19T21:45:39.257Z,56.05
2022-12-19T21:48:06.448Z,52.85
2022-12-19T21:50:36.187Z,44.70
2022-12-19T21:53:04.244Z,52.65
2022-12-19T21:55:31.307Z,44.25
2022-12-19T21:57:59.770Z,49.08
2022-12-19T22:00:26.872Z,52.97
2022-12-19T22:03:13.488Z,48.10
2022-12-19T22:05:41.171Z,47.47
2022-12-19T22:08:09.783Z,50.03
2022-12-19T22:10:39.869Z,51.73
2022-12-19T22:13:06.881Z,45.15
2022-12-19T22:15:36.523Z,42.15
2022-12-19T22:18:03.821Z,44.50
2022-12-19T22:20:30.881Z,45.22
2022-12-19T22:22:57.852Z,42.33
2022-12-19T22:25:24.924Z,53.88
2022-12-19T22:27:54.950Z,47.05
2022-12-19T22:30:21.983Z,45.35
2022-12-19T22:32:48.982Z,42.17
2022-12-19T22:35:16.076Z,42.20
2022-12-19T22:37:43.935Z,44.30
2022-12-19T22:40:13.379Z,41.42
2022-12-19T22:42:40.399Z,42.65
2022-12-19T22:45:08.040Z,42.42
2022-12-19T22:47:35.851Z,45.15
2022-12-19T22:50:02.953Z,45.53
2022-12-19T22:52:30.016Z,42.63
2022-12-19T22:54:57.086Z,42.17
2022-12-19T22:57:24.129Z,45.90
2022-12-19T22:59:51.147Z,45.28
2022-12-19T23:02:18.249Z,41.60
2022-12-19T23:04:45.361Z,44.08
2022-12-19T23:07:12.385Z,39.90
2022-12-19T23:09:39.753Z,43.17
2022-12-19T23:12:06.923Z,44.63
2022-12-19T23:14:34.042Z,42.90
2022-12-19T23:17:01.120Z,42.80
2022-12-19T23:19:28.225Z,43.80
2022-12-19T23:21:55.387Z,43.97
2022-12-19T23:24:22.503Z,49.40
2022-12-19T23:26:49.537Z,42.53
2022-12-19T23:29:16.610Z,42.20
2022-12-19T23:31:45.842Z,43.50
2022-12-19T23:34:13.843Z,41.42
2022-12-19T23:39:28.263Z,42.15
2022-12-19T23:41:55.464Z,43.15
2022-12-19T23:44:22.790Z,43.67
2022-12-19T23:46:49.819Z,38.90
2022-12-19T23:49:16.973Z,47.75
2022-12-19T23:51:44.015Z,46.80
2022-12-19T23:54:11.533Z,39.63
2022-12-19T23:56:38.624Z,45.47
2022-12-19T23:59:05.739Z,46.85
